sensor_id;sensor_type;location;lat;lon;timestamp;temperature;humidity
51579;DHT22;47998;53.242;6.386;2024-03-23T00:53:52;3.60;99.90
51579;DHT22;47998;53.242;6.386;2024-03-23T00:56:17;3.60;99.90
51579;DHT22;47998;53.242;6.386;2024-03-23T00:58:43;3.60;99.90
51579;DHT22;47998;53.242;6.386;2024-03-23T01:01:09;3.40;99.90
51579;DHT22;47998;53.242;6.386;2024-03-23T01:03:34;3.50;99.90
51579;DHT22;47998;53.242;6.386;2024-03-23T01:06:01;3.40;99.90
51579;DHT22;47998;53.242;6.386;2024-03-23T01:08:26;3.40;99.90
51579;DHT22;47998;53.242;6.386;2024-03-23T01:10:59;3.50;99.90
51579;DHT22;47998;53.242;6.386;2024-03-23T01:13:25;3.40;99.90
51579;DHT22;47998;53.242;6.386;2024-03-23T01:15:52;3.50;99.90
51579;DHT22;47998;53.242;6.386;2024-03-23T01:18:19;3.50;99.90
51579;DHT22;47998;53.242;6.386;2024-03-23T01:20:45;3.50;99.90
51579;DHT22;47998;53.242;6.386;2024-03-23T01:23:11;3.70;99.90
51579;DHT22;47998;53.242;6.386;2024-03-23T01:25:37;3.70;99.90
51579;DHT22;47998;53.242;6.386;2024-03-23T01:28:03;3.60;99.90
51579;DHT22;47998;53.242;6.386;2024-03-23T01:30:28;3.60;99.90
51579;DHT22;47998;53.242;6.386;2024-03-23T01:32:54;3.60;99.90
51579;DHT22;47998;53.242;6.386;2024-03-23T01:35:20;3.50;99.90
51579;DHT22;47998;53.242;6.386;2024-03-23T01:37:45;3.40;99.90
51579;DHT22;47998;53.242;6.386;2024-03-23T01:40:11;3.40;99.90
51579;DHT22;47998;53.242;6.386;2024-03-23T01:42:39;3.40;99.90
51579;DHT22;47998;53.242;6.386;2024-03-23T01:45:07;3.30;99.90
51579;DHT22;47998;53.242;6.386;2024-03-23T01:47:33;3.30;99.90
51579;DHT22;47998;53.242;6.386;2024-03-23T01:49:59;3.30;99.90
51579;DHT22;47998;53.242;6.386;2024-03-23T01:52:26;3.30;99.90
51579;DHT22;47998;53.242;6.386;2024-03-23T01:54:53;3.30;99.90
51579;DHT22;47998;53.242;6.386;2024-03-23T01:57:22;3.20;99.90
51579;DHT22;47998;53.242;6.386;2024-03-23T01:59:48;3.20;99.90
51579;DHT22;47998;53.242;6.386;2024-03-23T02:02:13;3.20;99.90
51579;DHT22;47998;53.242;6.386;2024-03-23T02:04:39;3.30;99.90
51579;DHT22;47998;53.242;6.386;2024-03-23T02:07:06;3.20;99.90
51579;DHT22;47998;53.242;6.386;2024-03-23T02:09:32;3.30;99.90
51579;DHT22;47998;53.242;6.386;2024-03-23T02:11:58;3.40;99.90
51579;DHT22;47998;53.242;6.386;2024-03-23T02:14:24;3.50;99.90
51579;DHT22;47998;53.242;6.386;2024-03-23T02:16:49;3.50;99.90
51579;DHT22;47998;53.242;6.386;2024-03-23T02:19:15;3.60;99.90
51579;DHT22;47998;53.242;6.386;2024-03-23T02:21:41;3.50;99.90
51579;DHT22;47998;53.242;6.386;2024-03-23T02:24:06;3.60;99.90
51579;DHT22;47998;53.242;6.386;2024-03-23T02:26:32;3.60;99.90
51579;DHT22;47998;53.242;6.386;2024-03-23T02:28:58;3.60;99.90
51579;DHT22;47998;53.242;6.386;2024-03-23T02:31:23;3.60;99.90
51579;DHT22;47998;53.242;6.386;2024-03-23T02:33:49;3.70;99.90
51579;DHT22;47998;53.242;6.386;2024-03-23T02:36:15;3.70;99.90
51579;DHT22;47998;53.242;6.386;2024-03-23T02:38:40;3.60;99.90
51579;DHT22;47998;53.242;6.386;2024-03-23T02:41:06;3.70;99.90
51579;DHT22;47998;53.242;6.386;2024-03-23T02:43:32;3.70;99.90
51579;DHT22;47998;53.242;6.386;2024-03-23T02:45:57;3.60;99.90
51579;DHT22;47998;53.242;6.386;2024-03-23T02:48:23;3.60;99.90
51579;DHT22;47998;53.242;6.386;2024-03-23T02:50:49;3.50;99.90
51579;DHT22;47998;53.242;6.386;2024-03-23T02:53:16;3.50;99.90
51579;DHT22;47998;53.242;6.386;2024-03-23T02:55:41;3.40;99.90
51579;DHT22;47998;53.242;6.386;2024-03-23T02:58:07;3.40;99.90
51579;DHT22;47998;53.242;6.386;2024-03-23T03:00:33;3.50;99.90
51579;DHT22;47998;53.242;6.386;2024-03-23T03:02:58;3.40;99.90
51579;DHT22;47998;53.242;6.386;2024-03-23T03:05:24;3.40;99.90
51579;DHT22;47998;53.242;6.386;2024-03-23T03:07:50;3.40;99.90
51579;DHT22;47998;53.242;6.386;2024-03-23T03:10:16;3.40;99.90
51579;DHT22;47998;53.242;6.386;2024-03-23T03:12:41;3.40;99.90
51579;DHT22;47998;53.242;6.386;2024-03-23T03:15:08;3.30;99.90
51579;DHT22;47998;53.242;6.386;2024-03-23T03:17:35;3.30;99.90
51579;DHT22;47998;53.242;6.386;2024-03-23T03:20:00;3.30;99.90
51579;DHT22;47998;53.242;6.386;2024-03-23T03:22:26;3.20;99.90
51579;DHT22;47998;53.242;6.386;2024-03-23T03:24:52;3.10;99.90
51579;DHT22;47998;53.242;6.386;2024-03-23T03:27:17;3.20;99.90
51579;DHT22;47998;53.242;6.386;2024-03-23T03:29:43;3.00;99.90
51579;DHT22;47998;53.242;6.386;2024-03-23T03:32:08;3.00;99.90
51579;DHT22;47998;53.242;6.386;2024-03-23T03:34:34;3.00;99.90
51579;DHT22;47998;53.242;6.386;2024-03-23T03:37:00;2.90;99.90
51579;DHT22;47998;53.242;6.386;2024-03-23T03:39:26;2.80;99.90
51579;DHT22;47998;53.242;6.386;2024-03-23T03:41:51;2.70;99.90
51579;DHT22;47998;53.242;6.386;2024-03-23T03:44:17;2.70;99.90
51579;DHT22;47998;53.242;6.386;2024-03-23T03:46:43;2.70;99.90
51579;DHT22;47998;53.242;6.386;2024-03-23T03:49:09;2.70;99.90
51579;DHT22;47998;53.242;6.386;2024-03-23T03:51:34;2.70;99.90
51579;DHT22;47998;53.242;6.386;2024-03-23T03:54:00;2.80;99.90
51579;DHT22;47998;53.242;6.386;2024-03-23T03:56:26;2.80;99.90
51579;DHT22;47998;53.242;6.386;2024-03-23T03:58:52;2.90;99.90
51579;DHT22;47998;53.242;6.386;2024-03-23T04:01:18;2.90;99.90
51579;DHT22;47998;53.242;6.386;2024-03-23T04:03:43;2.90;99.90
51579;DHT22;47998;53.242;6.386;2024-03-23T04:06:10;3.00;99.90
51579;DHT22;47998;53.242;6.386;2024-03-23T04:08:35;3.00;99.90
51579;DHT22;47998;53.242;6.386;2024-03-23T04:11:02;3.10;99.90
51579;DHT22;47998;53.242;6.386;2024-03-23T04:13:27;3.10;99.90
51579;DHT22;47998;53.242;6.386;2024-03-23T04:15:56;3.20;99.90
51579;DHT22;47998;53.242;6.386;2024-03-23T04:18:22;3.20;99.90
51579;DHT22;47998;53.242;6.386;2024-03-23T04:20:51;3.20;99.90
51579;DHT22;47998;53.242;6.386;2024-03-23T04:23:17;3.20;99.90
51579;DHT22;47998;53.242;6.386;2024-03-23T04:25:43;3.10;99.90
51579;DHT22;47998;53.242;6.386;2024-03-23T04:28:09;3.10;99.90
51579;DHT22;47998;53.242;6.386;2024-03-23T04:30:34;3.20;99.90
51579;DHT22;47998;53.242;6.386;2024-03-23T04:33:00;3.10;99.90
51579;DHT22;47998;53.242;6.386;2024-03-23T04:35:26;3.00;99.90
51579;DHT22;47998;53.242;6.386;2024-03-23T04:37:53;3.00;99.90
51579;DHT22;47998;53.242;6.386;2024-03-23T04:40:19;3.00;99.90
51579;DHT22;47998;53.242;6.386;2024-03-23T04:42:45;3.00;99.90
51579;DHT22;47998;53.242;6.386;2024-03-23T04:45:10;3.00;99.90
51579;DHT22;47998;53.242;6.386;2024-03-23T04:47:37;3.00;99.90
51579;DHT22;47998;53.242;6.386;2024-03-23T04:50:04;3.00;99.90
51579;DHT22;47998;53.242;6.386;2024-03-23T04:52:30;2.90;99.90
51579;DHT22;47998;53.242;6.386;2024-03-23T04:54:56;3.00;99.90
51579;DHT22;47998;53.242;6.386;2024-03-23T04:57:22;2.90;99.90
51579;DHT22;47998;53.242;6.386;2024-03-23T04:59:48;2.80;99.90
51579;DHT22;47998;53.242;6.386;2024-03-23T05:02:14;2.80;99.90
51579;DHT22;47998;53.242;6.386;2024-03-23T05:04:40;2.80;99.90
51579;DHT22;47998;53.242;6.386;2024-03-23T05:07:06;2.80;99.90
51579;DHT22;47998;53.242;6.386;2024-03-23T05:09:32;2.80;99.90
51579;DHT22;47998;53.242;6.386;2024-03-23T05:11:59;2.80;99.90
51579;DHT22;47998;53.242;6.386;2024-03-23T05:14:28;2.80;99.90
51579;DHT22;47998;53.242;6.386;2024-03-23T05:16:54;2.80;99.90
51579;DHT22;47998;53.242;6.386;2024-03-23T05:19:20;2.80;99.90
51579;DHT22;47998;53.242;6.386;2024-03-23T05:21:45;2.90;99.90
51579;DHT22;47998;53.242;6.386;2024-03-23T05:24:11;2.90;99.90
51579;DHT22;47998;53.242;6.386;2024-03-23T05:26:38;3.00;99.90
51579;DHT22;47998;53.242;6.386;2024-03-23T05:29:03;3.00;99.90
51579;DHT22;47998;53.242;6.386;2024-03-23T05:31:31;2.90;99.90
51579;DHT22;47998;53.242;6.386;2024-03-23T05:33:57;2.80;99.90
51579;DHT22;47998;53.242;6.386;2024-03-23T05:36:23;2.90;99.90
51579;DHT22;47998;53.242;6.386;2024-03-23T05:38:51;2.80;99.90
51579;DHT22;47998;53.242;6.386;2024-03-23T05:41:17;2.90;99.90
51579;DHT22;47998;53.242;6.386;2024-03-23T05:43:43;3.20;99.90
51579;DHT22;47998;53.242;6.386;2024-03-23T05:46:09;3.00;99.90
51579;DHT22;47998;53.242;6.386;2024-03-23T05:48:35;3.10;99.90
51579;DHT22;47998;53.242;6.386;2024-03-23T05:51:03;3.20;99.90
51579;DHT22;47998;53.242;6.386;2024-03-23T05:53:29;3.30;99.90
51579;DHT22;47998;53.242;6.386;2024-03-23T05:56:03;3.40;99.90
51579;DHT22;47998;53.242;6.386;2024-03-23T05:58:32;3.60;99.90
51579;DHT22;47998;53.242;6.386;2024-03-23T06:01:02;3.70;99.90
51579;DHT22;47998;53.242;6.386;2024-03-23T06:03:28;3.90;99.90
51579;DHT22;47998;53.242;6.386;2024-03-23T06:05:55;4.10;99.90
51579;DHT22;47998;53.242;6.386;2024-03-23T06:08:21;4.20;99.90
51579;DHT22;47998;53.242;6.386;2024-03-23T06:10:47;4.20;99.90
51579;DHT22;47998;53.242;6.386;2024-03-23T06:13:14;4.10;99.90
51579;DHT22;47998;53.242;6.386;2024-03-23T06:15:39;4.00;99.90
51579;DHT22;47998;53.242;6.386;2024-03-23T06:18:05;4.10;99.90
51579;DHT22;47998;53.242;6.386;2024-03-23T06:20:33;4.00;99.90
51579;DHT22;47998;53.242;6.386;2024-03-23T06:22:59;4.10;99.90
51579;DHT22;47998;53.242;6.386;2024-03-23T06:25:25;4.00;99.90
51579;DHT22;47998;53.242;6.386;2024-03-23T06:27:51;4.10;99.90
51579;DHT22;47998;53.242;6.386;2024-03-23T06:30:16;4.10;99.90
51579;DHT22;47998;53.242;6.386;2024-03-23T06:32:42;4.00;99.90
51579;DHT22;47998;53.242;6.386;2024-03-23T06:35:08;3.90;99.90
51579;DHT22;47998;53.242;6.386;2024-03-23T06:37:36;3.80;99.90
51579;DHT22;47998;53.242;6.386;2024-03-23T06:40:02;3.90;99.90
51579;DHT22;47998;53.242;6.386;2024-03-23T06:42:27;4.00;99.90
51579;DHT22;47998;53.242;6.386;2024-03-23T06:44:53;4.50;99.90
51579;DHT22;47998;53.242;6.386;2024-03-23T06:47:19;4.50;99.90
51579;DHT22;47998;53.242;6.386;2024-03-23T06:49:45;4.60;99.90
51579;DHT22;47998;53.242;6.386;2024-03-23T06:52:10;4.60;99.90
51579;DHT22;47998;53.242;6.386;2024-03-23T06:54:36;4.60;99.90
51579;DHT22;47998;53.242;6.386;2024-03-23T06:57:02;4.50;99.90
51579;DHT22;47998;53.242;6.386;2024-03-23T06:59:28;4.50;99.90
51579;DHT22;47998;53.242;6.386;2024-03-23T07:01:54;4.50;99.90
51579;DHT22;47998;53.242;6.386;2024-03-23T07:04:19;4.60;99.90
51579;DHT22;47998;53.242;6.386;2024-03-23T07:06:45;4.90;99.90
51579;DHT22;47998;53.242;6.386;2024-03-23T07:09:11;5.00;99.90
51579;DHT22;47998;53.242;6.386;2024-03-23T07:11:37;4.90;99.90
51579;DHT22;47998;53.242;6.386;2024-03-23T07:14:03;4.80;99.90
51579;DHT22;47998;53.242;6.386;2024-03-23T07:16:29;4.80;99.90
51579;DHT22;47998;53.242;6.386;2024-03-23T07:18:55;4.70;99.90
51579;DHT22;47998;53.242;6.386;2024-03-23T07:21:21;4.60;99.90
51579;DHT22;47998;53.242;6.386;2024-03-23T07:23:47;4.60;99.90
51579;DHT22;47998;53.242;6.386;2024-03-23T07:26:13;4.60;99.90
51579;DHT22;47998;53.242;6.386;2024-03-23T07:28:39;4.90;99.90
51579;DHT22;47998;53.242;6.386;2024-03-23T07:31:13;5.10;99.90
51579;DHT22;47998;53.242;6.386;2024-03-23T07:33:45;5.30;99.90
51579;DHT22;47998;53.242;6.386;2024-03-23T07:36:11;5.40;99.90
51579;DHT22;47998;53.242;6.386;2024-03-23T07:38:37;5.40;99.90
51579;DHT22;47998;53.242;6.386;2024-03-23T07:41:06;5.40;99.90
51579;DHT22;47998;53.242;6.386;2024-03-23T07:43:32;5.50;99.90
51579;DHT22;47998;53.242;6.386;2024-03-23T07:45:59;5.70;99.90
51579;DHT22;47998;53.242;6.386;2024-03-23T07:48:25;5.60;99.90
51579;DHT22;47998;53.242;6.386;2024-03-23T07:53:30;6.20;99.90
51579;DHT22;47998;53.242;6.386;2024-03-23T07:56:09;6.50;99.90
51579;DHT22;47998;53.242;6.386;2024-03-23T07:58:36;6.60;99.90
51579;DHT22;47998;53.242;6.386;2024-03-23T08:01:20;6.10;99.90
51579;DHT22;47998;53.242;6.386;2024-03-23T08:03:45;5.10;99.90
51579;DHT22;47998;53.242;6.386;2024-03-23T08:06:19;4.40;99.90
51579;DHT22;47998;53.242;6.386;2024-03-23T08:08:57;4.00;99.90
51579;DHT22;47998;53.242;6.386;2024-03-23T08:11:27;3.90;99.90
51579;DHT22;47998;53.242;6.386;2024-03-23T08:13:53;3.80;99.90
51579;DHT22;47998;53.242;6.386;2024-03-23T08:16:19;3.90;99.90
51579;DHT22;47998;53.242;6.386;2024-03-23T08:18:44;4.10;99.90
51579;DHT22;47998;53.242;6.386;2024-03-23T08:21:10;4.30;99.90
51579;DHT22;47998;53.242;6.386;2024-03-23T08:23:36;4.60;99.90
51579;DHT22;47998;53.242;6.386;2024-03-23T08:26:11;4.80;99.90
51579;DHT22;47998;53.242;6.386;2024-03-23T08:28:37;5.20;99.90
51579;DHT22;47998;53.242;6.386;2024-03-23T08:31:12;5.50;99.90
51579;DHT22;47998;53.242;6.386;2024-03-23T08:33:40;5.60;99.90
51579;DHT22;47998;53.242;6.386;2024-03-23T08:36:09;6.00;99.90
51579;DHT22;47998;53.242;6.386;2024-03-23T08:38:37;6.20;99.90
51579;DHT22;47998;53.242;6.386;2024-03-23T08:41:11;6.30;99.90
51579;DHT22;47998;53.242;6.386;2024-03-23T08:43:37;6.30;99.90
51579;DHT22;47998;53.242;6.386;2024-03-23T08:46:08;6.60;99.90
51579;DHT22;47998;53.242;6.386;2024-03-23T08:48:42;6.90;99.90
51579;DHT22;47998;53.242;6.386;2024-03-23T08:51:12;7.40;99.90
51579;DHT22;47998;53.242;6.386;2024-03-23T08:53:41;6.20;99.90
51579;DHT22;47998;53.242;6.386;2024-03-23T08:58:36;7.10;99.90
51579;DHT22;47998;53.242;6.386;2024-03-23T09:20:55;5.50;99.90
51579;DHT22;47998;53.242;6.386;2024-03-23T09:23:22;5.00;99.90
51579;DHT22;47998;53.242;6.386;2024-03-23T09:25:48;4.80;99.90
51579;DHT22;47998;53.242;6.386;2024-03-23T09:28:13;4.30;99.90
51579;DHT22;47998;53.242;6.386;2024-03-23T09:30:39;4.50;99.90
51579;DHT22;47998;53.242;6.386;2024-03-23T09:33:11;4.40;99.90
51579;DHT22;47998;53.242;6.386;2024-03-23T09:35:43;4.60;99.90
51579;DHT22;47998;53.242;6.386;2024-03-23T09:38:10;5.60;99.90
51579;DHT22;47998;53.242;6.386;2024-03-23T09:40:42;6.20;99.90
51579;DHT22;47998;53.242;6.386;2024-03-23T09:43:08;6.40;99.90
51579;DHT22;47998;53.242;6.386;2024-03-23T09:48:10;5.80;99.90
51579;DHT22;47998;53.242;6.386;2024-03-23T09:50:42;6.50;99.90
51579;DHT22;47998;53.242;6.386;2024-03-23T09:53:14;5.80;99.90
51579;DHT22;47998;53.242;6.386;2024-03-23T09:58:08;6.10;99.90
51579;DHT22;47998;53.242;6.386;2024-03-23T10:00:37;7.40;99.90
51579;DHT22;47998;53.242;6.386;2024-03-23T10:03:04;7.60;99.90
51579;DHT22;47998;53.242;6.386;2024-03-23T10:05:32;8.30;99.90
51579;DHT22;47998;53.242;6.386;2024-03-23T10:08:01;7.90;99.90
51579;DHT22;47998;53.242;6.386;2024-03-23T10:10:43;8.20;99.90
51579;DHT22;47998;53.242;6.386;2024-03-23T10:13:09;8.80;99.90
51579;DHT22;47998;53.242;6.386;2024-03-23T10:15:36;8.70;99.90
51579;DHT22;47998;53.242;6.386;2024-03-23T10:18:20;9.00;99.90
51579;DHT22;47998;53.242;6.386;2024-03-23T10:23:40;8.40;99.90
51579;DHT22;47998;53.242;6.386;2024-03-23T10:26:22;8.20;99.90
51579;DHT22;47998;53.242;6.386;2024-03-23T10:28:55;7.90;99.90
51579;DHT22;47998;53.242;6.386;2024-03-23T10:31:23;8.50;99.90
51579;DHT22;47998;53.242;6.386;2024-03-23T10:33:49;8.70;99.90
51579;DHT22;47998;53.242;6.386;2024-03-23T10:36:15;8.50;99.90
51579;DHT22;47998;53.242;6.386;2024-03-23T10:38:43;8.80;99.90
51579;DHT22;47998;53.242;6.386;2024-03-23T10:41:11;8.90;99.90
51579;DHT22;47998;53.242;6.386;2024-03-23T10:43:38;9.10;99.90
51579;DHT22;47998;53.242;6.386;2024-03-23T10:46:04;9.50;99.90
51579;DHT22;47998;53.242;6.386;2024-03-23T10:48:33;9.50;99.90
51579;DHT22;47998;53.242;6.386;2024-03-23T10:50:59;7.60;99.90
51579;DHT22;47998;53.242;6.386;2024-03-23T10:53:27;6.70;99.90
51579;DHT22;47998;53.242;6.386;2024-03-23T10:55:54;6.30;99.90
51579;DHT22;47998;53.242;6.386;2024-03-23T11:11:17;7.40;99.90
51579;DHT22;47998;53.242;6.386;2024-03-23T11:13:53;7.10;99.90
51579;DHT22;47998;53.242;6.386;2024-03-23T11:16:24;7.10;99.90
51579;DHT22;47998;53.242;6.386;2024-03-23T11:18:51;8.30;99.90
51579;DHT22;47998;53.242;6.386;2024-03-23T11:21:54;8.90;99.90
51579;DHT22;47998;53.242;6.386;2024-03-23T11:24:21;8.30;99.90
51579;DHT22;47998;53.242;6.386;2024-03-23T11:26:48;8.60;99.90
51579;DHT22;47998;53.242;6.386;2024-03-23T11:29:17;8.90;99.90
51579;DHT22;47998;53.242;6.386;2024-03-23T11:31:53;8.40;99.90
51579;DHT22;47998;53.242;6.386;2024-03-23T11:34:22;8.00;99.90
51579;DHT22;47998;53.242;6.386;2024-03-23T11:36:48;8.10;99.90
51579;DHT22;47998;53.242;6.386;2024-03-23T11:39:17;8.00;99.90
51579;DHT22;47998;53.242;6.386;2024-03-23T11:41:50;7.50;99.90
51579;DHT22;47998;53.242;6.386;2024-03-23T11:44:20;7.80;99.90
51579;DHT22;47998;53.242;6.386;2024-03-23T11:46:46;7.70;99.90
51579;DHT22;47998;53.242;6.386;2024-03-23T11:49:26;8.60;99.90
51579;DHT22;47998;53.242;6.386;2024-03-23T11:51:54;9.10;99.90
51579;DHT22;47998;53.242;6.386;2024-03-23T11:54:24;8.40;99.90
51579;DHT22;47998;53.242;6.386;2024-03-23T11:57:00;7.80;99.90
51579;DHT22;47998;53.242;6.386;2024-03-23T11:59:41;7.90;99.90
51579;DHT22;47998;53.242;6.386;2024-03-23T12:02:12;8.10;99.90
51579;DHT22;47998;53.242;6.386;2024-03-23T12:04:43;8.80;99.90
51579;DHT22;47998;53.242;6.386;2024-03-23T12:07:19;8.70;99.90
51579;DHT22;47998;53.242;6.386;2024-03-23T12:09:46;7.50;99.90
51579;DHT22;47998;53.242;6.386;2024-03-23T12:12:16;4.90;99.90
51579;DHT22;47998;53.242;6.386;2024-03-23T12:14:46;3.90;99.90
51579;DHT22;47998;53.242;6.386;2024-03-23T12:17:32;4.00;99.90
51579;DHT22;47998;53.242;6.386;2024-03-23T12:19:58;4.30;99.90
51579;DHT22;47998;53.242;6.386;2024-03-23T12:22:24;4.60;99.90
51579;DHT22;47998;53.242;6.386;2024-03-23T12:24:50;4.70;99.90
51579;DHT22;47998;53.242;6.386;2024-03-23T12:27:16;5.10;99.90
51579;DHT22;47998;53.242;6.386;2024-03-23T12:29:42;6.00;99.90
51579;DHT22;47998;53.242;6.386;2024-03-23T12:32:11;6.70;99.90
51579;DHT22;47998;53.242;6.386;2024-03-23T12:34:37;7.30;99.90
51579;DHT22;47998;53.242;6.386;2024-03-23T12:37:03;7.60;99.90
51579;DHT22;47998;53.242;6.386;2024-03-23T12:39:29;7.80;99.90
51579;DHT22;47998;53.242;6.386;2024-03-23T12:41:55;7.40;99.90
51579;DHT22;47998;53.242;6.386;2024-03-23T12:44:21;7.10;99.90
51579;DHT22;47998;53.242;6.386;2024-03-23T12:46:47;6.80;99.90
51579;DHT22;47998;53.242;6.386;2024-03-23T12:49:12;6.00;99.90
51579;DHT22;47998;53.242;6.386;2024-03-23T12:51:39;5.70;99.90
51579;DHT22;47998;53.242;6.386;2024-03-23T12:54:04;6.30;99.90
51579;DHT22;47998;53.242;6.386;2024-03-23T12:56:30;7.20;99.90
51579;DHT22;47998;53.242;6.386;2024-03-23T12:58:56;7.30;99.90
51579;DHT22;47998;53.242;6.386;2024-03-23T13:01:23;7.70;99.90
51579;DHT22;47998;53.242;6.386;2024-03-23T13:03:49;7.90;99.90
51579;DHT22;47998;53.242;6.386;2024-03-23T13:06:19;7.90;99.90
51579;DHT22;47998;53.242;6.386;2024-03-23T13:08:47;7.40;99.90
51579;DHT22;47998;53.242;6.386;2024-03-23T13:11:15;8.00;99.90
51579;DHT22;47998;53.242;6.386;2024-03-23T13:13:41;7.70;99.90
51579;DHT22;47998;53.242;6.386;2024-03-23T13:16:10;7.10;99.90
51579;DHT22;47998;53.242;6.386;2024-03-23T13:18:35;6.80;99.90
51579;DHT22;47998;53.242;6.386;2024-03-23T13:21:01;6.60;99.90
51579;DHT22;47998;53.242;6.386;2024-03-23T13:23:27;6.70;99.90
51579;DHT22;47998;53.242;6.386;2024-03-23T13:25:55;6.80;99.90
51579;DHT22;47998;53.242;6.386;2024-03-23T13:28:24;6.80;99.90
51579;DHT22;47998;53.242;6.386;2024-03-23T13:30:54;6.10;99.90
51579;DHT22;47998;53.242;6.386;2024-03-23T13:33:20;5.10;99.90
51579;DHT22;47998;53.242;6.386;2024-03-23T13:35:52;5.20;99.90
51579;DHT22;47998;53.242;6.386;2024-03-23T13:38:22;5.30;99.90
51579;DHT22;47998;53.242;6.386;2024-03-23T13:40:58;5.20;99.90
51579;DHT22;47998;53.242;6.386;2024-03-23T13:43:26;5.30;99.90
51579;DHT22;47998;53.242;6.386;2024-03-23T13:45:56;5.40;99.90
51579;DHT22;47998;53.242;6.386;2024-03-23T13:48:27;6.20;99.90
51579;DHT22;47998;53.242;6.386;2024-03-23T13:51:00;6.20;99.90
51579;DHT22;47998;53.242;6.386;2024-03-23T13:53:26;6.10;99.90
51579;DHT22;47998;53.242;6.386;2024-03-23T13:55:52;6.50;99.90
51579;DHT22;47998;53.242;6.386;2024-03-23T13:58:18;7.10;99.90
51579;DHT22;47998;53.242;6.386;2024-03-23T14:00:44;6.60;99.90
51579;DHT22;47998;53.242;6.386;2024-03-23T14:03:13;6.50;99.90
51579;DHT22;47998;53.242;6.386;2024-03-23T14:05:39;6.30;99.90
51579;DHT22;47998;53.242;6.386;2024-03-23T14:08:10;5.80;99.90
51579;DHT22;47998;53.242;6.386;2024-03-23T14:10:42;5.20;99.90
51579;DHT22;47998;53.242;6.386;2024-03-23T14:13:08;5.60;99.90
51579;DHT22;47998;53.242;6.386;2024-03-23T14:15:34;5.90;99.90
51579;DHT22;47998;53.242;6.386;2024-03-23T14:18:02;6.10;99.90
51579;DHT22;47998;53.242;6.386;2024-03-23T14:20:28;6.10;99.90
51579;DHT22;47998;53.242;6.386;2024-03-23T14:22:54;6.30;99.90
51579;DHT22;47998;53.242;6.386;2024-03-23T14:25:19;6.80;99.90
51579;DHT22;47998;53.242;6.386;2024-03-23T14:27:47;6.90;99.90
51579;DHT22;47998;53.242;6.386;2024-03-23T14:30:13;7.20;99.90
51579;DHT22;47998;53.242;6.386;2024-03-23T14:32:39;7.10;99.90
51579;DHT22;47998;53.242;6.386;2024-03-23T14:35:05;7.10;99.90
51579;DHT22;47998;53.242;6.386;2024-03-23T14:37:37;6.80;99.90
51579;DHT22;47998;53.242;6.386;2024-03-23T14:40:04;6.70;99.90
51579;DHT22;47998;53.242;6.386;2024-03-23T14:42:32;7.10;99.90
51579;DHT22;47998;53.242;6.386;2024-03-23T14:44:58;7.30;99.90
51579;DHT22;47998;53.242;6.386;2024-03-23T14:47:24;7.50;99.90
51579;DHT22;47998;53.242;6.386;2024-03-23T14:49:50;7.50;99.90
51579;DHT22;47998;53.242;6.386;2024-03-23T14:52:19;7.60;99.90
51579;DHT22;47998;53.242;6.386;2024-03-23T14:54:47;7.80;99.90
51579;DHT22;47998;53.242;6.386;2024-03-23T14:57:13;7.50;99.90
51579;DHT22;47998;53.242;6.386;2024-03-23T14:59:39;7.20;99.90
51579;DHT22;47998;53.242;6.386;2024-03-23T15:02:09;7.10;99.90
51579;DHT22;47998;53.242;6.386;2024-03-23T15:04:34;7.60;99.90
51579;DHT22;47998;53.242;6.386;2024-03-23T15:07:01;7.60;99.90
51579;DHT22;47998;53.242;6.386;2024-03-23T15:09:27;7.40;99.90
51579;DHT22;47998;53.242;6.386;2024-03-23T15:11:52;7.10;99.90
51579;DHT22;47998;53.242;6.386;2024-03-23T15:14:20;7.10;99.90
51579;DHT22;47998;53.242;6.386;2024-03-23T15:16:46;7.20;99.90
51579;DHT22;47998;53.242;6.386;2024-03-23T15:19:14;7.30;99.90
51579;DHT22;47998;53.242;6.386;2024-03-23T15:21:40;7.40;99.90
51579;DHT22;47998;53.242;6.386;2024-03-23T15:24:07;7.30;99.90
51579;DHT22;47998;53.242;6.386;2024-03-23T15:26:37;7.10;99.90
51579;DHT22;47998;53.242;6.386;2024-03-23T15:29:02;7.20;99.90
51579;DHT22;47998;53.242;6.386;2024-03-23T15:31:28;7.50;99.90
51579;DHT22;47998;53.242;6.386;2024-03-23T15:33:57;7.60;99.90
51579;DHT22;47998;53.242;6.386;2024-03-23T15:36:24;7.10;99.90
51579;DHT22;47998;53.242;6.386;2024-03-23T15:38:49;7.30;99.90
51579;DHT22;47998;53.242;6.386;2024-03-23T15:41:15;7.50;99.90
51579;DHT22;47998;53.242;6.386;2024-03-23T15:43:41;7.60;99.90
51579;DHT22;47998;53.242;6.386;2024-03-23T15:46:07;7.60;99.90
51579;DHT22;47998;53.242;6.386;2024-03-23T15:48:33;7.70;99.90
51579;DHT22;47998;53.242;6.386;2024-03-23T15:51:03;7.70;99.90
51579;DHT22;47998;53.242;6.386;2024-03-23T15:53:30;7.60;99.90
51579;DHT22;47998;53.242;6.386;2024-03-23T15:55:56;7.40;99.90
51579;DHT22;47998;53.242;6.386;2024-03-23T15:58:22;7.10;99.90
51579;DHT22;47998;53.242;6.386;2024-03-23T16:01:01;6.70;99.90
51579;DHT22;47998;53.242;6.386;2024-03-23T16:03:30;6.60;99.90
51579;DHT22;47998;53.242;6.386;2024-03-23T16:06:00;6.50;99.90
51579;DHT22;47998;53.242;6.386;2024-03-23T16:08:26;6.50;99.90
51579;DHT22;47998;53.242;6.386;2024-03-23T16:10:52;6.50;99.90
51579;DHT22;47998;53.242;6.386;2024-03-23T16:13:19;6.60;99.90
51579;DHT22;47998;53.242;6.386;2024-03-23T16:15:46;6.70;99.90
51579;DHT22;47998;53.242;6.386;2024-03-23T16:18:11;6.90;99.90
51579;DHT22;47998;53.242;6.386;2024-03-23T16:20:37;7.10;99.90
51579;DHT22;47998;53.242;6.386;2024-03-23T16:23:03;7.00;99.90
51579;DHT22;47998;53.242;6.386;2024-03-23T16:25:29;6.70;99.90
51579;DHT22;47998;53.242;6.386;2024-03-23T16:27:56;6.50;99.90
51579;DHT22;47998;53.242;6.386;2024-03-23T16:30:22;6.30;99.90
51579;DHT22;47998;53.242;6.386;2024-03-23T16:32:48;6.30;99.90
51579;DHT22;47998;53.242;6.386;2024-03-23T16:35:14;6.20;99.90
51579;DHT22;47998;53.242;6.386;2024-03-23T16:37:40;6.20;99.90
51579;DHT22;47998;53.242;6.386;2024-03-23T16:40:06;6.30;99.90
51579;DHT22;47998;53.242;6.386;2024-03-23T16:42:35;6.40;99.90
51579;DHT22;47998;53.242;6.386;2024-03-23T16:45:01;6.70;99.90
51579;DHT22;47998;53.242;6.386;2024-03-23T16:47:26;6.80;99.90
51579;DHT22;47998;53.242;6.386;2024-03-23T16:49:55;6.70;99.90
51579;DHT22;47998;53.242;6.386;2024-03-23T16:52:22;6.60;99.90
51579;DHT22;47998;53.242;6.386;2024-03-23T16:54:48;6.60;99.90
51579;DHT22;47998;53.242;6.386;2024-03-23T16:57:13;6.60;99.90
51579;DHT22;47998;53.242;6.386;2024-03-23T16:59:39;6.70;99.90
51579;DHT22;47998;53.242;6.386;2024-03-23T17:02:05;6.60;99.90
51579;DHT22;47998;53.242;6.386;2024-03-23T17:04:30;6.50;99.90
51579;DHT22;47998;53.242;6.386;2024-03-23T17:06:56;6.20;99.90
51579;DHT22;47998;53.242;6.386;2024-03-23T17:09:22;6.00;99.90
51579;DHT22;47998;53.242;6.386;2024-03-23T17:11:48;5.80;99.90
51579;DHT22;47998;53.242;6.386;2024-03-23T17:14:14;5.60;99.90
51579;DHT22;47998;53.242;6.386;2024-03-23T17:16:41;5.50;99.90
51579;DHT22;47998;53.242;6.386;2024-03-23T17:19:07;5.40;99.90
51579;DHT22;47998;53.242;6.386;2024-03-23T17:21:36;5.30;99.90
51579;DHT22;47998;53.242;6.386;2024-03-23T17:24:06;5.40;99.90